createdAt,value
2022-08-03T05:34:15.156Z,77.49
2022-08-03T05:37:18.201Z,77.15
2022-08-03T05:40:21.177Z,76.31
2022-08-03T05:43:24.109Z,77.40
2022-08-03T05:46:26.793Z,73.46
2022-08-03T05:49:29.710Z,74.53
2022-08-03T05:52:32.360Z,71.61
2022-08-03T05:55:35.420Z,72.87
2022-08-03T05:58:38.205Z,70.65
2022-08-03T06:01:41.184Z,69.60
2022-08-03T06:04:44.132Z,69.99
2022-08-03T06:07:47.146Z,68.42
2022-08-03T06:10:50.790Z,69.35
2022-08-03T06:13:53.497Z,67.28
2022-08-03T06:16:56.489Z,67.01
2022-08-03T06:19:59.372Z,66.68
2022-08-03T06:23:23.845Z,66.68
2022-08-03T06:26:46.156Z,65.58
2022-08-03T06:29:57.826Z,65.32
2022-08-03T06:33:00.719Z,66.06
2022-08-03T06:36:04.066Z,64.66
2022-08-03T06:39:08.147Z,64.86
2022-08-03T06:42:11.903Z,64.52
2022-08-03T06:45:14.755Z,62.13
2022-08-03T06:48:17.854Z,61.02
2022-08-03T06:51:20.544Z,61.13
2022-08-03T06:54:24.509Z,60.27
2022-08-03T06:57:27.454Z,61.32
2022-08-03T07:00:32.091Z,59.86
2022-08-03T07:03:34.826Z,56.92
2022-08-03T07:06:39.192Z,58.21
2022-08-03T07:09:41.944Z,55.52
2022-08-03T07:13:00.581Z,51.80
2022-08-03T07:16:03.352Z,50.89
2022-08-03T07:19:06.369Z,55.82
2022-08-03T07:22:09.173Z,55.58
2022-08-03T07:25:12.169Z,56.54
2022-08-03T07:28:15.439Z,57.03
2022-08-03T07:31:18.842Z,53.36
2022-08-03T07:34:21.672Z,51.42
2022-08-03T07:37:24.780Z,50.17
2022-08-03T07:40:28.678Z,51.33
2022-08-03T07:43:35.046Z,51.12
2022-08-03T07:46:37.873Z,51.84
2022-08-03T07:49:42.655Z,53.62
2022-08-03T07:52:48.200Z,51.88
2022-08-03T07:55:51.423Z,51.63
2022-08-03T07:58:54.923Z,51.28
2022-08-03T08:01:57.903Z,51.90
2022-08-03T08:05:05.353Z,52.74
2022-08-03T08:08:08.609Z,51.34
2022-08-03T08:11:11.680Z,49.85
2022-08-03T08:14:14.431Z,49.76
2022-08-03T08:17:17.405Z,48.73
2022-08-03T08:20:27.950Z,49.61
2022-08-03T08:23:42.907Z,50.52
2022-08-03T08:26:46.910Z,50.60
2022-08-03T08:29:54.573Z,48.51
2022-08-03T08:33:00.390Z,48.81
2022-08-03T08:36:03.578Z,47.17
2022-08-03T08:39:06.268Z,47.82
2022-08-03T08:42:10.557Z,46.79
2022-08-03T08:45:15.611Z,46.97
2022-08-03T08:48:24.664Z,47.86
2022-08-03T08:51:50.981Z,50.94
2022-08-03T08:55:04.008Z,47.52
2022-08-03T08:58:09.606Z,47.89
2022-08-03T09:01:12.739Z,49.32
2022-08-03T09:04:15.990Z,47.45
2022-08-03T09:07:20.391Z,47.42
2022-08-03T09:10:23.672Z,45.98
2022-08-03T09:13:26.913Z,44.08
2022-08-03T09:16:29.738Z,45.76
2022-08-03T09:19:34.879Z,44.16
2022-08-03T09:22:52.938Z,45.69
2022-08-03T09:26:00.068Z,45.57
2022-08-03T09:29:16.784Z,45.75
2022-08-03T09:32:22.253Z,44.51
2022-08-03T09:35:51.588Z,44.67
2022-08-03T09:39:12.944Z,44.14
2022-08-03T09:42:18.386Z,42.08
2022-08-03T09:45:30.040Z,41.75
2022-08-03T09:48:37.368Z,43.00
2022-08-03T09:52:32.566Z,41.46
2022-08-03T09:56:31.642Z,42.02
2022-08-03T09:58:47.115Z,41.57
2022-08-03T10:01:49.970Z,43.17
2022-08-03T10:04:54.238Z,39.81
2022-08-03T10:07:56.949Z,39.25
2022-08-03T10:11:00.658Z,39.75
2022-08-03T10:14:08.408Z,43.29
2022-08-03T10:17:11.438Z,41.00
2022-08-03T10:20:15.074Z,40.71
2022-08-03T10:23:20.131Z,38.91
2022-08-03T10:26:26.314Z,39.96
2022-08-03T10:29:33.105Z,41.67
2022-08-03T10:32:43.111Z,37.99
2022-08-03T10:35:48.815Z,36.49
2022-08-03T10:38:53.758Z,38.34
2022-08-03T10:42:02.746Z,37.05
2022-08-03T10:45:09.490Z,39.82
2022-08-03T10:48:14.030Z,38.17
2022-08-03T10:51:19.260Z,35.71
2022-08-03T10:54:37.579Z,36.69
2022-08-03T10:57:58.218Z,36.80
2022-08-03T11:01:02.222Z,36.81
2022-08-03T11:04:09.586Z,37.34
2022-08-03T11:07:24.102Z,40.34
2022-08-03T11:10:31.980Z,43.46
2022-08-03T11:13:35.186Z,45.16
2022-08-03T11:16:45.302Z,44.92
2022-08-03T11:19:56.800Z,44.18
2022-08-03T11:23:01.788Z,44.46
2022-08-03T11:26:16.084Z,45.03
2022-08-03T11:29:30.519Z,43.61
2022-08-03T11:32:40.554Z,43.66
2022-08-03T11:36:01.480Z,42.09
2022-08-03T11:39:16.857Z,39.53
2022-08-03T11:42:31.752Z,40.12
2022-08-03T11:45:35.916Z,38.18
2022-08-03T11:48:43.137Z,36.26
2022-08-03T11:51:46.143Z,37.66
2022-08-03T11:54:56.647Z,38.27
2022-08-03T11:59:01.553Z,36.68
2022-08-03T12:01:25.753Z,36.51
2022-08-03T12:04:28.773Z,39.07
2022-08-03T12:08:03.616Z,38.82
2022-08-03T12:10:56.637Z,36.66
2022-08-03T12:14:50.785Z,38.09
2022-08-03T12:17:22.904Z,38.35
2022-08-03T12:20:31.509Z,38.46
2022-08-03T12:23:39.829Z,40.64
2022-08-03T12:26:58.489Z,38.88
2022-08-03T12:30:03.687Z,38.63
2022-08-03T12:33:33.670Z,35.52
2022-08-03T12:36:38.584Z,38.26
2022-08-03T12:40:02.660Z,33.79
2022-08-03T12:43:12.775Z,35.88
2022-08-03T12:46:17.587Z,34.95
2022-08-03T12:49:21.277Z,35.19
2022-08-03T12:52:24.137Z,35.41
2022-08-03T12:55:57.192Z,32.66
2022-08-03T12:58:59.069Z,31.53
2022-08-03T13:02:09.534Z,33.16
2022-08-03T13:05:14.422Z,32.54
2022-08-03T13:08:23.576Z,31.24
2022-08-03T13:11:50.635Z,31.78
2022-08-03T13:15:00.569Z,31.64
2022-08-03T13:18:23.288Z,31.47
2022-08-03T13:21:26.500Z,33.89
2022-08-03T13:24:30.534Z,33.65
2022-08-03T13:28:03.128Z,32.42
2022-08-03T13:31:08.255Z,31.14
2022-08-03T13:34:11.360Z,33.52
2022-08-03T13:37:14.793Z,31.53
2022-08-03T13:40:23.621Z,31.72
2022-08-03T13:43:33.051Z,29.01
2022-08-03T13:46:36.262Z,33.48
2022-08-03T13:49:39.712Z,31.72
2022-08-03T13:52:42.935Z,29.53
2022-08-03T13:55:45.939Z,30.94
2022-08-03T13:58:49.263Z,30.91
2022-08-03T14:01:55.751Z,29.81
2022-08-03T14:04:59.068Z,28.62
2022-08-03T14:08:05.321Z,29.86
2022-08-03T14:11:08.717Z,29.18
2022-08-03T14:14:11.824Z,28.44
2022-08-03T14:17:16.518Z,27.89
2022-08-03T14:20:37.177Z,29.11
2022-08-03T14:23:42.874Z,28.69
2022-08-03T14:26:47.558Z,28.30
2022-08-03T14:29:51.590Z,28.22
2022-08-03T14:32:56.875Z,29.55
2022-08-03T14:36:04.402Z,29.19
2022-08-03T14:39:07.186Z,28.86
2022-08-03T15:44:50.570Z,29.28
2022-08-03T15:47:53.662Z,29.99
2022-08-03T15:50:56.537Z,29.85
2022-08-03T15:53:59.549Z,30.90
2022-08-03T15:57:02.216Z,30.80
2022-08-03T16:00:08.297Z,30.48
2022-08-03T16:03:28.368Z,30.06
2022-08-03T16:06:47.197Z,30.04
2022-08-03T16:09:50.229Z,30.22
2022-08-03T16:12:52.922Z,32.08
2022-08-03T16:15:56.063Z,33.26
2022-08-03T16:18:58.838Z,33.56
2022-08-03T16:22:10.776Z,31.47
2022-08-03T16:25:17.380Z,32.24
2022-08-03T16:28:20.975Z,31.51
2022-08-03T16:31:27.191Z,30.99
2022-08-03T16:34:30.256Z,31.67
2022-08-03T16:37:38.519Z,34.02
2022-08-03T16:40:43.067Z,32.90
2022-08-03T16:43:45.889Z,34.28
2022-08-03T16:46:48.845Z,33.37
2022-08-03T16:49:56.057Z,36.96
2022-08-03T16:52:59.585Z,36.49
2022-08-03T16:56:06.718Z,39.21
2022-08-03T16:59:13.383Z,37.95
2022-08-03T17:02:26.151Z,37.22
2022-08-03T17:05:43.787Z,38.25
2022-08-03T17:08:55.068Z,41.60
2022-08-03T17:11:58.747Z,38.78
2022-08-03T17:15:04.255Z,42.25
2022-08-03T17:18:11.908Z,40.83
2022-08-03T17:21:21.185Z,40.13
2022-08-03T17:24:31.200Z,41.83
2022-08-03T17:28:50.492Z,40.59
2022-08-03T17:31:23.495Z,37.51
2022-08-03T17:34:35.377Z,38.77
2022-08-03T17:37:57.473Z,37.46
2022-08-03T17:41:01.983Z,37.08
